Wajima, Japan

6:40 PM JST on July 24, 2016 (GMT +0900)
Noto | | Change Station

Elev 715 ft 37.29 °N, 136.96 °E | Updated 40 minutes ago

Scattered Clouds
Scattered Clouds
79 °F
Feels Like 79 °F
N
4
Wind Variable Wind from South

Today
High -- | Low -- °F
--% Chance of Precip.
Yesterday
High -- | Low -- °F
Precip. -- in
Pressure 29.92 in
Visibility 6.2 miles
Clouds Few 4500 ft
Scattered Clouds 12000 ft
Dew Point 73 °F
Humidity 83%
Rainfall 0.00 in
Snow Depth Not available.
4:50 AM 7:07 PM
Waning Gibbous, 78% visible
METAR RJNW 240900Z 18003KT 9999 FEW045 SCT120 BKN/// 26/23 Q1013
Pressure 29.92 in
Visibility 6.2 miles
Clouds Few 4500 ft
Scattered Clouds 12000 ft
Dew Point 73 °F
Humidity 83%
Rainfall 0.00 in
Snow Depth Not available.
4:50 AM 7:07 PM
Waning Gibbous, 78% visible
METAR RJNW 240900Z 18003KT 9999 FEW045 SCT120 BKN/// 26/23 Q1013

10-Day Weather Forecast

No radar image for this location.
×

Almanac

Astronomy

Jul. 24, 2016 Rise Set
Actual Time
Civil Twilight
Nautical Twilight
Astronomical Twilight
Moon
Length of Visible Light
Length of Day
Tomorrow will be .
, % of the Moon is Illuminated

Today's Extremes

Country Highs Country Lows

Community

WunderPhotos

Upload Photos

1,927,042 photos uploaded!

WunderBlog® & News

Nearby

Air Quality

  Air Quality AQ Index Pollutant
Not available.

Snow Depth

Station Depth Elevation

Earthquake Activity

City Distance Mag. Time & Date
Minimum magnitude displayed is 2.5.

Coastal Water Temperatures

Place Temperature

Stations

Nearby Weather Stations

Station Location Temp. Windchill Dew Point Humidity Wind Precip. Elev Updated Type